Weather at Cottonwood Airport

Public forecast

Using degrees Fahrenheit for public forecast. Weather courtesy of forecast.io.

Closest aviation weather report (METAR) to Cottonwood Airport

Closest report is Sedona Airport, 14.1 nm (26.1 km) ENE. Retrieved 2021/01/28 07:35 UTC (5 minutes ago):

KSEZ 280735Z AUTO 04010KT 10SM CLR 02/M05 A3021 RMK AO2

Closest aviation forecast (TAF) to Cottonwood Airport

Closest forecast is Sedona Airport, 14.1 nm (26.1 km) ENE. Retrieved 2021/01/28 06:27 UTC (1 hour ago):

TAF KSEZ 280524Z 2806/2906 04008G14KT P6SM BKN250 FM281600 VRB06KT P6SM BKN250